Time;durP1;ratioP1;P1;durP2;ratioP2;P2;SDS_P1;SDS_P2;PMS_P1;PMS_P2;Temp;Humidity;BMP_temperature;BMP_pressure;BME280_temperature;BME280_humidity;BME280_pressure;Samples;Min_cycle;Max_cycle;Signal;HPM_P1;HPM_P2
2022/06/16 00:01:44;;;;;;;6.13;1.40;;;13.70;99.90;;;;;;5065743;28;20048;-61
2022/06/16 00:04:10;;;;;;;8.13;1.77;;;13.70;99.90;;;;;;5051028;28;20048;-62
2022/06/16 00:06:35;;;;;;;6.28;2.13;;;13.60;99.90;;;;;;5051443;28;20048;-67
2022/06/16 00:09:01;;;;;;;3.53;1.45;;;13.60;99.90;;;;;;5051842;28;20493;-66
2022/06/16 00:11:30;;;;;;;3.88;1.30;;;13.60;99.90;;;;;;5076719;28;20040;-68
2022/06/16 00:13:56;;;;;;;6.47;1.20;;;13.60;99.90;;;;;;5067910;28;20075;-71
2022/06/16 00:16:23;;;;;;;5.47;1.45;;;13.70;99.90;;;;;;5067355;28;20397;-65
2022/06/16 00:18:49;;;;;;;4.57;1.20;;;13.60;99.90;;;;;;5041888;28;20055;-64
2022/06/16 00:21:16;;;;;;;4.25;1.23;;;13.70;99.90;;;;;;5063654;28;20043;-67
2022/06/16 00:23:42;;;;;;;4.20;1.25;;;13.70;99.90;;;;;;5067503;28;20076;-69
2022/06/16 00:26:20;;;;;;;6.43;1.50;;;13.70;99.90;;;;;;5067913;28;20086;-66
2022/06/16 00:28:46;;;;;;;3.08;1.05;;;13.70;99.90;;;;;;5066122;28;20115;-66
2022/06/16 00:31:14;;;;;;;4.25;1.13;;;13.70;99.90;;;;;;5067338;28;20056;-69
2022/06/16 00:33:41;;;;;;;12.23;1.80;;;13.80;99.90;;;;;;5067610;28;20470;-65
2022/06/16 00:36:07;;;;;;;3.08;1.10;;;13.80;99.90;;;;;;5067091;28;20060;-66
2022/06/16 00:38:33;;;;;;;3.28;1.00;;;13.80;99.90;;;;;;5065878;28;20113;-68
2022/06/16 00:40:59;;;;;;;6.28;1.45;;;13.70;99.90;;;;;;5067252;28;20052;-66
2022/06/16 00:43:25;;;;;;;2.83;1.05;;;13.80;99.90;;;;;;5067049;28;20052;-68
2022/06/16 00:45:55;;;;;;;3.97;1.08;;;13.80;99.90;;;;;;5085879;28;20104;-67
2022/06/16 00:48:21;;;;;;;;;;;13.70;99.90;;;;;;5049691;28;20056;-62
2022/06/16 00:50:52;;;;;;;5.40;1.42;;;13.70;99.90;;;;;;5067362;28;20355;-73
2022/06/16 00:53:18;;;;;;;3.80;1.23;;;13.70;99.90;;;;;;5037076;28;20052;-67
2022/06/16 00:55:44;;;;;;;6.07;1.63;;;13.60;99.90;;;;;;5062688;28;20051;-70
2022/06/16 00:58:10;;;;;;;7.75;1.48;;;13.60;99.90;;;;;;5067168;28;20051;-67
2022/06/16 01:00:47;;;;;;;5.97;1.30;;;13.50;99.90;;;;;;5067190;28;20044;-66
2022/06/16 01:04:51;;;;;;;5.28;1.98;;;13.50;99.90;;;;;;5066855;28;20152;-67
2022/06/16 01:06:01;;;;;;;2.15;1.20;;;13.50;99.90;;;;;;5054121;28;20055;-62
2022/06/16 01:08:27;;;;;;;6.90;1.50;;;13.50;99.90;;;;;;5066884;28;20051;-66
2022/06/16 01:10:59;;;;;;;5.40;1.75;;;13.50;99.90;;;;;;5066739;28;20051;-66
2022/06/16 01:13:42;;;;;;;4.50;1.70;;;13.40;99.90;;;;;;5066949;28;20051;-71
2022/06/16 01:16:32;;;;;;;6.95;1.55;;;13.50;99.90;;;;;;5062660;28;20044;-71
2022/06/16 01:19:30;;;;;;;6.50;2.15;;;13.50;99.90;;;;;;5061430;28;20151;-64
2022/06/16 01:22:11;;;;;;;5.78;1.95;;;13.40;99.90;;;;;;5067341;28;20447;-67
2022/06/16 01:24:43;;;;;;;6.72;1.90;;;13.40;99.90;;;;;;5084971;28;20036;-66
2022/06/16 01:27:34;;;;;;;7.68;2.25;;;13.40;99.90;;;;;;5065745;28;20083;-71
2022/06/16 01:30:06;;;;;;;5.35;1.77;;;13.40;99.90;;;;;;5050575;28;20048;-70
2022/06/16 01:32:44;;;;;;;3.85;1.50;;;13.40;99.90;;;;;;5084893;28;20052;-62
2022/06/16 01:35:26;;;;;;;3.72;1.80;;;13.40;99.90;;;;;;5065496;28;20156;-65
2022/06/16 01:38:04;;;;;;;7.70;2.13;;;13.40;99.90;;;;;;5062455;28;20060;-64
2022/06/16 01:40:39;;;;;;;4.25;1.60;;;13.40;99.90;;;;;;5066468;28;20524;-68
2022/06/16 01:43:43;;;;;;;8.15;1.60;;;13.40;99.90;;;;;;5069104;28;20048;-72
2022/06/16 01:46:17;;;;;;;3.03;1.23;;;13.40;99.90;;;;;;5068424;28;20051;-69
2022/06/16 01:48:48;;;;;;;7.72;1.80;;;13.40;99.90;;;;;;5070813;28;20048;-62
2022/06/16 01:51:33;;;;;;;7.22;1.60;;;13.40;99.90;;;;;;5063995;28;20047;-65
2022/06/16 01:54:14;;;;;;;6.18;1.50;;;13.40;99.90;;;;;;5070636;28;20044;-69
2022/06/16 01:57:01;;;;;;;4.22;1.80;;;13.40;99.90;;;;;;5069120;28;20107;-71
2022/06/16 01:59:34;;;;;;;2.85;1.15;;;13.40;99.90;;;;;;5070222;28;20044;-62
2022/06/16 02:02:11;;;;;;;5.18;1.42;;;13.40;99.90;;;;;;5070412;28;20044;-62
2022/06/16 02:04:55;;;;;;;6.53;1.92;;;13.40;99.90;;;;;;5069958;28;20063;-70
2022/06/16 02:07:34;;;;;;;5.65;1.45;;;13.40;99.90;;;;;;5067212;28;20056;-70
2022/06/16 02:10:08;;;;;;;4.97;1.85;;;13.40;99.90;;;;;;5064582;28;20048;-68
2022/06/16 02:15:32;;;;;;;8.07;1.40;;;13.40;99.90;;;;;;5066301;28;20044;-68
2022/06/16 02:17:59;;;;;;;3.00;1.23;;;13.40;99.90;;;;;;5070273;28;20077;-63
2022/06/16 02:20:30;;;;;;;3.83;1.20;;;13.30;99.90;;;;;;5069738;28;20402;-66
2022/06/16 02:22:57;;;;;;;4.05;1.25;;;13.30;99.90;;;;;;5070251;28;20075;-72
2022/06/16 02:25:23;;;;;;;2.60;1.02;;;13.30;99.90;;;;;;5068662;28;20059;-69
2022/06/16 02:27:49;;;;;;;4.00;1.13;;;13.30;99.90;;;;;;5050139;28;20043;-67
2022/06/16 02:30:15;;;;;;;4.03;1.30;;;13.40;99.90;;;;;;5069584;28;20499;-66
2022/06/16 02:32:49;;;;;;;1.92;1.17;;;13.40;99.90;;;;;;5069936;28;20052;-66
2022/06/16 02:35:34;;;;;;;4.85;1.35;;;13.40;99.90;;;;;;5069693;28;20048;-68
2022/06/16 02:38:26;;;;;;;4.15;1.25;;;13.50;99.90;;;;;;5051717;28;20058;-71
2022/06/16 02:41:20;;;;;;;4.20;1.20;;;13.40;99.90;;;;;;5070048;28;20090;-63
2022/06/16 02:43:59;;;;;;;4.65;1.15;;;13.50;99.90;;;;;;5070012;28;20047;-63
2022/06/16 02:46:39;;;;;;;5.43;1.40;;;13.40;99.90;;;;;;5068137;28;20055;-67
2022/06/16 02:49:14;;;;;;;;;;;13.40;99.90;;;;;;5067365;28;20303;-70
2022/06/16 02:51:58;;;;;;;1.52;0.80;;;13.40;99.90;;;;;;5066340;28;20076;-62
2022/06/16 02:54:34;;;;;;;4.35;0.90;;;13.40;99.90;;;;;;5068065;28;20040;-68
2022/06/16 02:57:23;;;;;;;4.90;1.20;;;13.40;99.90;;;;;;5068003;28;20128;-63
2022/06/16 02:59:57;;;;;;;3.17;1.13;;;13.50;99.90;;;;;;5063706;28;20438;-71
2022/06/16 03:02:25;;;;;;;1.70;1.00;;;13.50;99.90;;;;;;5069071;28;20044;-63
2022/06/16 03:04:56;;;;;;;4.00;1.08;;;13.40;99.90;;;;;;5069033;28;20139;-65
2022/06/16 03:07:22;;;;;;;5.10;1.05;;;13.50;99.90;;;;;;5067467;28;20077;-64
2022/06/16 03:09:48;;;;;;;5.40;1.50;;;13.50;99.90;;;;;;5041611;28;20482;-62
2022/06/16 03:12:15;;;;;;;2.22;1.15;;;13.40;99.90;;;;;;5063222;28;20048;-62
2022/06/16 03:14:41;;;;;;;2.47;1.23;;;13.50;99.90;;;;;;5069680;28;20152;-72
2022/06/16 03:17:08;;;;;;;6.60;1.67;;;13.50;99.90;;;;;;5069073;28;20052;-68
2022/06/16 03:19:34;;;;;;;2.45;0.77;;;13.50;99.90;;;;;;5058933;28;20044;-68
2022/06/16 03:22:00;;;;;;;5.90;1.05;;;13.50;99.90;;;;;;5068971;28;20490;-65
2022/06/16 03:24:26;;;;;;;1.85;0.90;;;13.50;99.90;;;;;;5068920;28;20113;-65
2022/06/16 03:26:52;;;;;;;4.32;0.98;;;13.50;99.90;;;;;;5052573;28;20764;-68
2022/06/16 03:29:18;;;;;;;3.22;0.90;;;13.60;99.90;;;;;;5049867;28;20104;-62
2022/06/16 03:31:43;;;;;;;2.33;0.75;;;13.50;99.90;;;;;;5066831;28;20101;-69
2022/06/16 03:34:09;;;;;;;5.68;1.00;;;13.60;99.90;;;;;;5069034;28;20048;-64
2022/06/16 03:36:37;;;;;;;2.03;0.88;;;13.50;99.90;;;;;;5051810;28;20047;-65
2022/06/16 03:39:04;;;;;;;2.05;0.80;;;13.60;99.90;;;;;;5068708;28;20036;-68
2022/06/16 03:41:31;;;;;;;4.20;0.88;;;13.60;99.90;;;;;;5066585;28;20510;-61
2022/06/16 03:43:57;;;;;;;4.28;1.00;;;13.60;99.90;;;;;;5051766;28;20050;-71
2022/06/16 03:46:23;;;;;;;4.22;1.00;;;13.60;99.90;;;;;;5068065;28;20044;-69
2022/06/16 03:48:49;;;;;;;2.03;0.70;;;13.60;99.90;;;;;;5068542;28;20487;-67
2022/06/16 03:51:14;;;;;;;2.47;0.80;;;13.60;99.90;;;;;;5061489;28;20055;-67
2022/06/16 03:53:41;;;;;;;6.00;1.23;;;13.70;99.90;;;;;;5052012;28;20055;-73
2022/06/16 03:56:07;;;;;;;5.28;1.23;;;13.70;99.90;;;;;;5068431;28;20044;-65
2022/06/16 03:58:33;;;;;;;0.68;0.60;;;13.70;99.90;;;;;;5067839;28;20051;-72
2022/06/16 04:00:59;;;;;;;2.40;1.00;;;13.80;99.90;;;;;;5051038;28;20048;-63
2022/06/16 04:06:11;;;;;;;6.05;0.90;;;13.90;99.90;;;;;;5068273;28;20052;-72
2022/06/16 04:08:38;;;;;;;9.50;1.15;;;14.00;99.90;;;;;;5067564;28;20764;-71
2022/06/16 04:11:26;;;;;;;3.00;0.85;;;14.00;99.90;;;;;;5051745;28;20052;-65
2022/06/16 04:13:50;;;;;;;3.22;0.75;;;14.10;99.90;;;;;;5061426;28;20441;-67
2022/06/16 04:16:16;;;;;;;3.72;1.42;;;14.20;99.90;;;;;;5034774;28;20024;-62
2022/06/16 04:18:41;;;;;;;3.30;0.75;;;14.20;99.90;;;;;;5067420;28;20040;-66
2022/06/16 04:21:12;;;;;;;1.63;0.73;;;14.20;99.90;;;;;;5051265;28;20055;-69
2022/06/16 04:23:38;;;;;;;3.92;0.68;;;14.30;99.90;;;;;;5065393;28;20494;-64
2022/06/16 04:26:04;;;;;;;2.10;0.73;;;14.30;99.90;;;;;;5067690;28;20117;-69
2022/06/16 04:28:30;;;;;;;2.38;0.93;;;14.40;99.90;;;;;;5067759;28;20407;-64
2022/06/16 04:30:56;;;;;;;3.42;0.77;;;14.40;99.90;;;;;;5050979;28;20036;-65
2022/06/16 04:33:22;;;;;;;3.13;0.68;;;14.40;99.90;;;;;;5063876;28;20044;-64
2022/06/16 04:35:48;;;;;;;3.35;0.93;;;14.40;99.90;;;;;;5067651;28;20573;-62
2022/06/16 04:38:14;;;;;;;4.47;1.10;;;14.50;99.90;;;;;;5067351;28;20125;-71
2022/06/16 04:40:40;;;;;;;3.47;1.00;;;14.50;99.90;;;;;;5067387;28;20495;-66
2022/06/16 04:43:06;;;;;;;5.32;0.98;;;14.60;99.90;;;;;;5065449;28;20106;-65
2022/06/16 04:45:31;;;;;;;6.07;1.10;;;14.50;99.90;;;;;;5050611;28;20524;-70
2022/06/16 04:47:57;;;;;;;2.95;0.93;;;14.50;99.90;;;;;;5067556;28;20075;-63
2022/06/16 04:50:23;;;;;;;2.05;1.08;;;14.50;99.90;;;;;;5050625;28;20555;-64
2022/06/16 04:52:49;;;;;;;6.88;1.48;;;14.50;99.90;;;;;;5067281;28;20066;-68
2022/06/16 04:55:17;;;;;;;5.30;0.98;;;14.50;99.90;;;;;;5065919;28;20079;-64
2022/06/16 04:57:43;;;;;;;2.92;0.95;;;14.50;99.90;;;;;;5050270;28;20036;-62
2022/06/16 05:00:13;;;;;;;6.72;1.00;;;14.40;99.90;;;;;;5050117;28;20052;-64
2022/06/16 05:02:39;;;;;;;6.28;1.20;;;14.40;99.90;;;;;;5067034;28;20052;-68
2022/06/16 05:05:05;;;;;;;1.35;0.60;;;14.40;99.90;;;;;;5056078;28;20060;-64
2022/06/16 05:07:31;;;;;;;4.13;0.80;;;14.40;99.90;;;;;;5067020;28;20044;-70
2022/06/16 05:09:57;;;;;;;4.53;1.02;;;14.40;99.90;;;;;;5067021;28;20162;-71
2022/06/16 05:12:23;;;;;;;2.33;0.82;;;14.40;99.90;;;;;;5050634;28;20105;-63
2022/06/16 05:14:48;;;;;;;4.60;1.08;;;14.50;99.90;;;;;;5047761;28;20867;-65
2022/06/16 05:17:15;;;;;;;3.78;0.80;;;14.50;99.90;;;;;;5057238;28;20066;-63
2022/06/16 05:19:41;;;;;;;5.60;1.10;;;14.60;99.90;;;;;;5079579;28;20084;-72
2022/06/16 05:22:07;;;;;;;2.67;0.82;;;14.80;99.90;;;;;;5058700;28;20099;-69
2022/06/16 05:24:33;;;;;;;3.45;0.90;;;14.90;99.90;;;;;;5049715;28;20063;-68
2022/06/16 05:27:00;;;;;;;2.85;1.15;;;15.10;99.90;;;;;;5040913;28;20049;-64
2022/06/16 05:29:27;;;;;;;6.32;1.00;;;15.10;99.90;;;;;;5046979;28;20088;-68
2022/06/16 05:31:53;;;;;;;5.43;1.20;;;15.20;99.90;;;;;;5066752;28;20059;-68
2022/06/16 05:34:18;;;;;;;4.63;1.30;;;15.20;99.90;;;;;;5050268;28;20040;-68
2022/06/16 05:36:46;;;;;;;6.20;1.00;;;15.30;99.90;;;;;;5066659;28;20105;-68
2022/06/16 05:39:12;;;;;;;5.93;1.60;;;15.20;99.90;;;;;;5053166;28;20066;-61
2022/06/16 05:41:38;;;;;;;3.83;1.25;;;15.20;99.90;;;;;;5066043;28;20368;-63
2022/06/16 05:44:05;;;;;;;2.65;1.00;;;15.30;99.90;;;;;;5064536;28;20063;-61
2022/06/16 05:46:31;;;;;;;5.95;1.40;;;15.40;99.90;;;;;;5066539;28;20051;-61
2022/06/16 05:48:57;;;;;;;2.92;1.10;;;15.50;99.90;;;;;;5066804;28;20547;-62
2022/06/16 05:51:23;;;;;;;5.32;1.10;;;15.50;99.90;;;;;;5050182;28;20078;-64
2022/06/16 05:53:50;;;;;;;2.80;1.10;;;15.50;99.90;;;;;;5064411;28;20048;-65
2022/06/16 05:56:16;;;;;;;4.95;1.38;;;15.50;99.90;;;;;;5050146;28;20048;-62
2022/06/16 05:58:42;;;;;;;3.35;0.98;;;15.50;99.90;;;;;;5066302;28;20044;-66
2022/06/16 06:01:10;;;;;;;1.52;0.80;;;15.60;99.90;;;;;;5066487;28;20052;-66
2022/06/16 06:03:38;;;;;;;2.13;0.80;;;15.60;99.90;;;;;;5066193;28;20051;-65
2022/06/16 06:06:04;;;;;;;4.93;1.00;;;15.60;99.90;;;;;;5065881;28;20127;-67
2022/06/16 06:16:54;;;;;;;5.75;1.08;;;15.60;99.90;;;;;;5066675;28;20083;-71
2022/06/16 06:19:31;;;;;;;0.98;0.63;;;15.60;99.90;;;;;;5061497;28;20101;-65
2022/06/16 06:22:11;;;;;;;2.17;0.88;;;15.60;99.90;;;;;;5066615;28;20056;-70
2022/06/16 06:24:57;;;;;;;4.63;1.13;;;15.60;99.90;;;;;;5065929;28;20040;-63
2022/06/16 06:27:31;;;;;;;3.13;0.73;;;15.70;99.90;;;;;;5049783;28;20486;-62
2022/06/16 06:29:57;;;;;;;3.75;0.93;;;15.70;99.90;;;;;;5070381;28;20055;-68
2022/06/16 06:32:24;;;;;;;5.40;1.52;;;15.80;99.90;;;;;;5051550;28;20044;-65
2022/06/16 06:34:50;;;;;;;5.63;0.90;;;15.90;99.90;;;;;;5069499;28;20075;-61
2022/06/16 06:37:19;;;;;;;1.65;0.70;;;15.90;99.90;;;;;;5053343;28;20475;-64
2022/06/16 06:39:44;;;;;;;1.92;1.10;;;15.90;99.90;;;;;;5069440;28;20485;-68
2022/06/16 06:42:10;;;;;;;1.77;0.70;;;15.90;99.90;;;;;;5070055;28;20044;-63
2022/06/16 06:44:36;;;;;;;4.57;1.23;;;15.90;99.90;;;;;;5051992;28;20051;-64
2022/06/16 06:47:03;;;;;;;4.93;1.15;;;15.90;99.90;;;;;;5070177;28;20055;-64
2022/06/16 06:49:29;;;;;;;4.95;0.95;;;15.90;99.90;;;;;;5069592;28;20109;-72
2022/06/16 06:51:54;;;;;;;4.22;1.52;;;15.90;99.90;;;;;;5069576;28;20126;-68
2022/06/16 06:54:21;;;;;;;3.17;1.13;;;16.00;99.90;;;;;;5069787;28;20056;-64
2022/06/16 06:56:48;;;;;;;2.47;0.85;;;16.10;99.90;;;;;;5085490;28;20051;-63
2022/06/16 06:59:18;;;;;;;3.53;0.85;;;16.30;99.90;;;;;;5062602;28;20051;-61
2022/06/16 07:01:48;;;;;;;3.80;1.10;;;16.40;99.90;;;;;;5069208;28;20118;-68
2022/06/16 07:04:14;;;;;;;3.53;0.95;;;16.60;99.90;;;;;;5069457;28;20059;-66
2022/06/16 07:06:41;;;;;;;3.97;0.95;;;16.60;94.70;;;;;;5052247;28;20501;-60
2022/06/16 07:09:07;;;;;;;2.10;0.77;;;16.70;94.10;;;;;;5067720;28;20090;-65
2022/06/16 07:11:33;;;;;;;3.17;1.02;;;16.80;94.20;;;;;;5052059;28;20048;-63
2022/06/16 07:13:59;;;;;;;3.92;0.93;;;16.90;94.80;;;;;;5065746;28;20085;-63
2022/06/16 07:16:25;;;;;;;2.38;0.73;;;17.00;87.20;;;;;;5035953;28;20051;-68
2022/06/16 07:18:50;;;;;;;3.70;1.38;;;17.10;93.40;;;;;;5068593;28;20059;-60
2022/06/16 07:21:16;;;;;;;2.70;0.80;;;17.20;84.70;;;;;;5052593;28;20040;-71
2022/06/16 07:23:43;;;;;;;2.40;0.90;;;17.40;88.20;;;;;;5068802;28;20530;-64
2022/06/16 07:26:10;;;;;;;2.42;0.63;;;17.60;81.40;;;;;;5068806;28;20051;-68
2022/06/16 07:28:36;;;;;;;2.95;0.80;;;17.50;57.10;;;;;;5068316;28;20047;-62
2022/06/16 07:31:03;;;;;;;1.38;0.50;;;17.60;68.60;;;;;;5050349;28;20058;-63
2022/06/16 07:33:28;;;;;;;2.10;0.88;;;17.80;59.10;;;;;;5068878;28;20169;-62
2022/06/16 07:35:55;;;;;;;4.97;1.05;;;18.00;68.40;;;;;;5051600;28;20127;-63
2022/06/16 07:38:23;;;;;;;1.70;0.47;;;18.40;91.20;;;;;;5068728;28;20493;-67
2022/06/16 07:40:48;;;;;;;3.22;1.00;;;18.90;77.60;;;;;;5050973;28;20207;-66
2022/06/16 07:43:14;;;;;;;8.13;1.10;;;19.20;46.80;;;;;;5050680;28;20496;-66
2022/06/16 07:45:40;;;;;;;2.28;1.05;;;19.20;44.50;;;;;;5067777;28;20040;-60
2022/06/16 07:48:07;;;;;;;2.40;0.90;;;19.30;57.10;;;;;;5049984;28;20051;-68
2022/06/16 07:50:36;;;;;;;3.03;1.02;;;19.30;39.40;;;;;;5067915;28;20043;-71
2022/06/16 07:53:07;;;;;;;3.33;0.70;;;19.40;62.60;;;;;;5084516;28;20529;-63
2022/06/16 07:55:33;;;;;;;2.10;0.80;;;19.40;44.80;;;;;;5065300;28;20052;-70
2022/06/16 07:58:01;;;;;;;3.10;1.13;;;19.40;23.70;;;;;;5067751;28;20054;-66
2022/06/16 08:00:31;;;;;;;2.28;0.73;;;19.30;42.00;;;;;;5046006;28;20035;-68
2022/06/16 08:02:57;;;;;;;2.15;1.02;;;19.40;68.80;;;;;;5063783;28;20520;-67
2022/06/16 08:05:23;;;;;;;2.72;0.85;;;19.50;37.30;;;;;;5049336;28;20063;-63
2022/06/16 08:07:49;;;;;;;1.90;0.70;;;19.70;51.10;;;;;;5057756;28;20107;-67
2022/06/16 08:10:19;;;;;;;4.05;1.02;;;19.70;52.20;;;;;;5065416;28;20490;-63
2022/06/16 08:12:45;;;;;;;3.15;0.90;;;19.70;45.20;;;;;;5066837;28;20094;-65
2022/06/16 08:15:11;;;;;;;1.02;0.65;;;19.60;59.10;;;;;;5058505;28;20087;-66
2022/06/16 08:17:41;;;;;;;2.65;0.70;;;19.50;61.80;;;;;;5066448;28;20415;-70
2022/06/16 08:20:07;;;;;;;;;;;19.40;65.10;;;;;;5051078;28;20040;-65
2022/06/16 08:22:34;;;;;;;3.03;0.82;;;19.20;70.40;;;;;;5051182;28;20401;-70
2022/06/16 08:25:00;;;;;;;3.08;0.80;;;19.10;63.00;;;;;;5065202;28;20501;-65
2022/06/16 08:27:33;;;;;;;3.15;0.90;;;19.00;68.30;;;;;;5066847;28;20040;-68
2022/06/16 08:30:00;;;;;;;3.70;0.70;;;19.20;71.60;;;;;;5067101;28;20048;-67
2022/06/16 08:32:25;;;;;;;1.67;0.50;;;19.20;64.40;;;;;;5022034;28;20044;-61
2022/06/16 08:34:51;;;;;;;4.68;0.73;;;19.30;50.00;;;;;;5066727;28;20077;-64
2022/06/16 08:37:20;;;;;;;4.65;1.40;;;19.30;71.10;;;;;;5067255;28;20048;-68
2022/06/16 08:39:46;;;;;;;3.30;1.25;;;19.30;62.30;;;;;;5066792;28;20063;-62
2022/06/16 08:42:27;;;;;;;2.25;0.60;;;19.30;58.90;;;;;;5058233;28;20048;-63
2022/06/16 08:44:55;;;;;;;3.78;0.65;;;19.40;62.00;;;;;;5064445;28;20436;-72
2022/06/16 08:47:52;;;;;;;1.90;0.60;;;19.40;55.20;;;;;;5050038;28;20109;-62
2022/06/16 08:50:22;;;;;;;7.15;0.80;;;19.40;71.50;;;;;;5065996;28;20491;-68
2022/06/16 08:53:07;;;;;;;2.08;0.80;;;19.60;72.90;;;;;;5063902;28;20040;-64
2022/06/16 08:55:40;;;;;;;3.92;0.90;;;19.50;60.90;;;;;;5065041;28;20062;-65
2022/06/16 08:58:24;;;;;;;3.30;0.93;;;19.50;47.20;;;;;;5067196;28;20059;-65
2022/06/16 09:00:55;;;;;;;2.00;0.80;;;19.50;60.20;;;;;;5049643;28;20051;-70
2022/06/16 09:03:28;;;;;;;2.55;0.98;;;19.70;53.60;;;;;;5065730;28;20063;-70
2022/06/16 09:06:15;;;;;;;3.22;0.80;;;19.70;52.00;;;;;;5061860;28;20059;-70
2022/06/16 09:09:00;;;;;;;7.70;1.13;;;19.90;65.90;;;;;;5050504;28;20079;-65
2022/06/16 09:11:41;;;;;;;3.35;0.88;;;20.10;41.10;;;;;;5054692;28;20087;-65
2022/06/16 09:18:00;;;;;;;2.40;0.77;;;20.20;57.40;;;;;;5062545;28;20047;-68
2022/06/16 09:20:40;;;;;;;5.50;1.17;;;20.20;53.50;;;;;;5042276;28;20052;-64
2022/06/16 09:23:16;;;;;;;3.47;0.95;;;20.10;50.60;;;;;;5066057;28;20091;-66
2022/06/16 09:26:20;;;;;;;4.47;0.90;;;20.10;32.80;;;;;;5066016;28;20074;-69
2022/06/16 09:29:17;;;;;;;3.75;1.08;;;20.00;34.90;;;;;;5064960;28;20079;-64
2022/06/16 09:31:53;;;;;;;2.80;0.82;;;20.00;59.50;;;;;;5063038;28;20047;-62
2022/06/16 09:34:38;;;;;;;2.60;0.77;;;19.80;19.10;;;;;;5080018;28;20109;-67
2022/06/16 09:37:13;;;;;;;3.55;0.90;;;19.80;36.30;;;;;;5069355;28;20083;-66
2022/06/16 09:39:43;;;;;;;2.92;0.50;;;19.90;36.60;;;;;;5064120;28;20048;-60
2022/06/16 09:42:33;;;;;;;5.85;1.27;;;20.00;20.60;;;;;;5062610;28;20040;-64
2022/06/16 09:44:58;;;;;;;;;;;20.10;14.70;;;;;;5061483;28;20076;-67
2022/06/16 09:47:31;;;;;;;2.90;0.63;;;20.10;5.60;;;;;;5060459;28;19978;-70
2022/06/16 09:50:03;;;;;;;2.80;0.80;;;20.00;9.90;;;;;;5057163;28;20146;-70
2022/06/16 09:52:34;;;;;;;1.70;0.47;;;19.90;10.60;;;;;;5063703;28;20040;-68
2022/06/16 09:55:15;;;;;;;1.55;0.50;;;19.90;2.40;;;;;;5062755;28;20499;-64
2022/06/16 09:57:47;;;;;;;2.53;0.75;;;19.80;6.30;;;;;;5047553;28;20056;-71
2022/06/16 10:00:20;;;;;;;4.18;0.98;;;19.90;11.60;;;;;;5045597;28;20145;-72
2022/06/16 10:02:56;;;;;;;1.83;0.90;;;20.00;7.60;;;;;;5064160;28;20044;-63
2022/06/16 10:05:49;;;;;;;1.60;0.80;;;19.80;7.20;;;;;;5066164;28;20064;-61
2022/06/16 10:08:30;;;;;;;1.52;0.63;;;19.80;12.20;;;;;;5052583;28;20406;-69
2022/06/16 10:11:33;;;;;;;3.45;0.60;;;19.80;1.00;;;;;;5064146;28;20469;-66
2022/06/16 10:14:25;;;;;;;1.20;0.70;;;19.70;1.00;;;;;;5056655;28;20048;-68
2022/06/16 10:17:07;;;;;;;2.38;0.88;;;19.80;1.00;;;;;;5059318;28;20040;-65
2022/06/16 10:19:39;;;;;;;1.38;0.85;;;19.70;1.00;;;;;;5047429;28;20478;-67
2022/06/16 10:22:06;;;;;;;2.65;0.77;;;19.70;1.00;;;;;;5052822;28;20738;-66
2022/06/16 10:24:41;;;;;;;4.10;1.00;;;19.70;1.00;;;;;;5069243;28;20155;-69
2022/06/16 10:27:10;;;;;;;1.83;0.77;;;19.70;1.00;;;;;;5061361;28;20052;-67
2022/06/16 10:29:36;;;;;;;2.58;0.73;;;19.60;1.00;;;;;;5060753;28;20082;-61
2022/06/16 10:32:04;;;;;;;7.63;0.88;;;19.70;1.00;;;;;;5043939;28;20076;-61
2022/06/16 10:34:36;;;;;;;1.50;0.70;;;19.70;1.00;;;;;;5063466;28;20113;-69
2022/06/16 10:37:23;;;;;;;3.30;0.75;;;19.70;1.00;;;;;;5067792;28;20048;-67
2022/06/16 10:40:29;;;;;;;4.13;0.88;;;19.60;1.00;;;;;;5067080;28;20135;-66
2022/06/16 10:43:05;;;;;;;3.05;1.00;;;19.40;1.00;;;;;;5066930;28;20064;-65
2022/06/16 10:45:34;;;;;;;1.95;0.90;;;19.40;1.00;;;;;;5055703;28;20135;-68
2022/06/16 10:48:35;;;;;;;2.20;0.80;;;19.60;4.30;;;;;;5062766;28;20044;-63
2022/06/16 10:51:25;;;;;;;4.28;1.08;;;19.60;7.10;;;;;;5024561;28;20052;-72
2022/06/16 10:54:02;;;;;;;4.43;1.20;;;19.60;5.30;;;;;;5068396;28;20440;-64
2022/06/16 10:56:28;;;;;;;5.15;1.30;;;19.60;8.20;;;;;;5068856;28;20062;-63
2022/06/16 10:58:59;;;;;;;2.97;1.30;;;19.60;13.80;;;;;;5051935;28;20121;-68
2022/06/16 11:01:35;;;;;;;7.57;1.92;;;19.70;1.80;;;;;;5065696;28;20140;-71
2022/06/16 11:04:11;;;;;;;2.47;1.17;;;19.70;6.40;;;;;;5074565;28;20402;-63
2022/06/16 11:06:47;;;;;;;5.07;1.35;;;19.60;11.70;;;;;;5064895;28;20052;-71
2022/06/16 11:09:18;;;;;;;2.38;1.25;;;19.50;9.50;;;;;;5040523;28;20050;-64
2022/06/16 11:11:53;;;;;;;2.67;1.02;;;19.50;5.00;;;;;;5056268;28;20115;-67
2022/06/16 11:14:32;;;;;;;2.88;0.80;;;19.50;11.10;;;;;;5065465;28;20442;-61
2022/06/16 11:16:59;;;;;;;2.60;0.95;;;19.50;10.40;;;;;;5068711;28;20055;-62
2022/06/16 11:19:41;;;;;;;1.75;0.93;;;19.50;11.50;;;;;;5068428;28;20028;-63
2022/06/16 11:22:47;;;;;;;3.22;1.02;;;19.60;14.90;;;;;;5066963;28;20078;-68
2022/06/16 11:25:21;;;;;;;3.38;0.82;;;19.40;23.50;;;;;;5038143;28;20548;-63
2022/06/16 11:28:01;;;;;;;2.13;1.02;;;19.20;24.30;;;;;;5064553;28;20063;-62
2022/06/16 11:30:31;;;;;;;4.32;1.15;;;19.20;24.50;;;;;;5036160;28;20067;-63
2022/06/16 11:32:57;;;;;;;2.97;1.10;;;19.30;31.10;;;;;;5049202;28;20159;-65
2022/06/16 11:35:33;;;;;;;2.95;1.05;;;19.20;10.90;;;;;;5068371;28;20076;-66
2022/06/16 11:38:11;;;;;;;2.70;0.93;;;19.20;27.20;;;;;;5049441;28;20125;-65
2022/06/16 11:41:04;;;;;;;1.40;0.97;;;19.20;8.50;;;;;;5055584;28;20112;-65
2022/06/16 11:44:09;;;;;;;3.65;1.23;;;19.10;16.30;;;;;;5061595;28;20052;-68
2022/06/16 11:46:45;;;;;;;0.88;0.80;;;19.20;19.60;;;;;;5065248;28;20044;-63
2022/06/16 11:49:32;;;;;;;3.33;0.90;;;19.30;27.60;;;;;;5067619;28;20048;-68
2022/06/16 11:52:46;;;;;;;2.83;1.35;;;19.40;28.90;;;;;;5064778;28;20048;-68
2022/06/16 11:55:19;;;;;;;3.40;1.08;;;19.50;12.00;;;;;;4956293;28;20088;-68
2022/06/16 11:57:51;;;;;;;1.27;1.10;;;19.50;41.10;;;;;;5059368;28;20039;-73
2022/06/16 12:00:34;;;;;;;4.32;0.80;;;19.40;58.00;;;;;;5064147;28;20083;-69
2022/06/16 12:03:09;;;;;;;5.38;1.10;;;19.50;69.50;;;;;;5066732;28;20048;-70
2022/06/16 12:05:47;;;;;;;1.20;0.82;;;19.50;49.80;;;;;;5067005;28;20048;-66
2022/06/16 12:08:25;;;;;;;4.53;1.10;;;19.60;65.70;;;;;;5067122;28;20064;-71
2022/06/16 12:10:53;;;;;;;2.25;1.05;;;19.60;52.00;;;;;;5061793;28;20084;-64
2022/06/16 12:13:40;;;;;;;2.87;0.97;;;19.70;37.60;;;;;;5067096;28;20048;-67
2022/06/16 12:16:22;;;;;;;5.05;1.10;;;19.70;27.80;;;;;;5063259;28;20427;-71
2022/06/16 12:18:59;;;;;;;2.72;1.20;;;19.90;53.30;;;;;;5067649;28;20530;-66
2022/06/16 12:21:57;;;;;;;2.58;1.08;;;19.90;36.10;;;;;;5067476;28;20047;-65
2022/06/16 12:24:52;;;;;;;3.70;0.93;;;20.00;40.40;;;;;;5061699;28;20064;-65
2022/06/16 12:27:44;;;;;;;1.75;0.98;;;20.10;41.50;;;;;;5059075;28;20052;-67
2022/06/16 12:30:34;;;;;;;2.75;1.00;;;20.00;31.70;;;;;;5054892;28;20557;-69
2022/06/16 12:33:07;;;;;;;5.40;1.55;;;19.90;54.40;;;;;;5083836;28;20089;-68
2022/06/16 12:35:36;;;;;;;3.55;0.93;;;19.90;52.70;;;;;;5067160;28;20433;-66
2022/06/16 12:38:11;;;;;;;1.77;0.77;;;19.90;66.50;;;;;;5064962;28;20050;-66
2022/06/16 12:40:49;;;;;;;4.63;1.00;;;19.80;68.70;;;;;;5049798;28;20110;-73
2022/06/16 12:43:21;;;;;;;2.50;0.90;;;19.70;60.80;;;;;;5063323;28;20572;-62
2022/06/16 12:45:55;;;;;;;2.05;1.00;;;19.70;57.00;;;;;;5055120;28;20051;-67
2022/06/16 12:48:48;;;;;;;2.58;1.02;;;19.80;49.30;;;;;;5068502;28;20048;-63
2022/06/16 12:51:18;;;;;;;1.02;0.93;;;19.70;42.20;;;;;;5084559;28;20052;-62
2022/06/16 12:53:52;;;;;;;2.55;1.42;;;19.60;44.50;;;;;;5036961;28;20043;-71
2022/06/16 12:56:29;;;;;;;1.55;0.90;;;19.70;46.10;;;;;;5066762;28;20102;-61
2022/06/16 12:59:12;;;;;;;5.40;1.30;;;19.60;43.70;;;;;;5065094;28;20062;-66
2022/06/16 13:01:39;;;;;;;3.55;0.95;;;19.70;63.80;;;;;;5050620;28;20044;-64
2022/06/16 13:04:35;;;;;;;2.92;0.90;;;19.60;58.70;;;;;;5066418;28;20439;-64
2022/06/16 13:07:10;;;;;;;2.50;0.98;;;19.50;69.00;;;;;;5066793;28;20048;-60
2022/06/16 13:09:36;;;;;;;1.75;0.98;;;19.60;68.50;;;;;;5065507;28;20082;-65
2022/06/16 13:12:06;;;;;;;3.47;1.10;;;19.60;73.40;;;;;;5050289;28;20051;-67
2022/06/16 13:14:49;;;;;;;1.20;0.90;;;19.50;82.40;;;;;;5066835;28;20070;-61
2022/06/16 13:17:15;;;;;;;4.25;1.17;;;19.40;73.80;;;;;;5066352;28;20544;-67
2022/06/16 13:19:51;;;;;;;2.17;1.00;;;19.60;84.10;;;;;;5061824;28;20112;-63
2022/06/16 13:22:44;;;;;;;1.65;1.17;;;19.70;81.70;;;;;;5036771;28;20056;-64
2022/06/16 13:25:35;;;;;;;3.05;1.10;;;19.90;49.00;;;;;;5079303;28;20051;-69
2022/06/16 13:28:05;;;;;;;2.58;1.00;;;20.20;67.10;;;;;;5027246;28;20457;-71
2022/06/16 13:30:31;;;;;;;1.80;1.00;;;20.30;31.60;;;;;;5046326;28;20044;-70
2022/06/16 13:33:01;;;;;;;1.92;1.13;;;20.20;21.80;;;;;;5081614;28;20136;-72
2022/06/16 13:35:39;;;;;;;2.42;0.80;;;20.20;19.50;;;;;;5056837;28;20044;-72